createdAt,value
2019-01-26T00:00:33.676Z,6.93
2019-01-26T00:03:02.373Z,5.00
2019-01-26T00:05:30.989Z,5.83
2019-01-26T00:07:59.677Z,5.27
2019-01-26T00:10:28.301Z,5.70
2019-01-26T00:12:56.982Z,4.30
2019-01-26T00:15:25.994Z,5.77
2019-01-26T00:17:54.655Z,5.70
2019-01-26T00:20:23.277Z,5.80
2019-01-26T00:22:51.987Z,5.80
2019-01-26T00:25:20.657Z,4.20
2019-01-26T00:27:49.278Z,4.37
2019-01-26T00:30:18.094Z,5.40
2019-01-26T00:32:46.711Z,4.97
2019-01-26T00:35:15.394Z,4.43
2019-01-26T00:37:44.019Z,4.23
2019-01-26T00:40:13.402Z,5.60
2019-01-26T00:42:42.027Z,5.57
2019-01-26T00:45:12.817Z,5.43
2019-01-26T00:47:41.507Z,5.77
2019-01-26T00:50:12.147Z,5.07
2019-01-26T00:52:40.766Z,4.83
2019-01-26T00:55:10.490Z,8.40
2019-01-26T00:57:39.184Z,7.63
2019-01-26T01:00:23.321Z,6.97
2019-01-26T01:02:51.950Z,6.87
2019-01-26T01:05:20.857Z,5.80
2019-01-26T01:07:49.575Z,5.03
2019-01-26T01:10:19.619Z,6.90
2019-01-26T01:12:48.399Z,4.00
2019-01-26T01:15:19.555Z,5.47
2019-01-26T01:17:48.578Z,5.27
2019-01-26T01:20:17.951Z,5.90
2019-01-26T01:22:46.757Z,6.40
2019-01-26T01:25:15.452Z,5.53
2019-01-26T01:27:44.136Z,3.20
2019-01-26T01:30:21.760Z,4.13
2019-01-26T01:32:50.540Z,4.00
2019-01-26T01:35:19.156Z,4.70
2019-01-26T01:37:47.769Z,3.90
2019-01-26T01:40:18.154Z,5.13
2019-01-26T01:42:46.763Z,3.63
2019-01-26T01:45:23.093Z,4.37
2019-01-26T01:47:51.727Z,4.90
2019-01-26T01:50:20.416Z,4.10
2019-01-26T01:52:49.025Z,4.40
2019-01-26T01:55:17.854Z,4.67
2019-01-26T01:57:46.630Z,4.60
2019-01-26T02:00:18.511Z,3.60
2019-01-26T02:02:47.118Z,4.20
2019-01-26T02:05:15.731Z,4.30
2019-01-26T02:07:44.378Z,3.07
2019-01-26T02:10:15.761Z,3.53
2019-01-26T02:12:44.465Z,4.80
2019-01-26T02:15:14.089Z,3.80
2019-01-26T02:17:42.692Z,4.73
2019-01-26T02:20:20.320Z,4.87
2019-01-26T02:22:48.921Z,4.40
2019-01-26T02:25:17.708Z,4.73
2019-01-26T02:27:46.340Z,5.17
2019-01-26T02:30:22.618Z,4.63
2019-01-26T02:32:51.224Z,4.60
2019-01-26T02:35:20.008Z,5.47
2019-01-26T02:37:48.685Z,4.57
2019-01-26T02:40:18.037Z,5.03
2019-01-26T02:42:46.677Z,4.17
2019-01-26T02:45:16.359Z,4.20
2019-01-26T02:47:44.970Z,5.10
2019-01-26T02:50:18.277Z,6.07
2019-01-26T02:52:46.884Z,4.67
2019-01-26T02:55:15.507Z,7.50
2019-01-26T02:57:44.205Z,5.77
2019-01-26T03:00:23.590Z,5.53
2019-01-26T03:02:52.215Z,3.50
2019-01-26T03:05:20.949Z,4.30
2019-01-26T03:07:49.567Z,4.40
2019-01-26T03:10:20.189Z,5.87
2019-01-26T03:12:48.884Z,4.27
2019-01-26T03:15:19.812Z,5.50
2019-01-26T03:17:48.579Z,5.20
2019-01-26T03:20:17.993Z,5.33
2019-01-26T03:22:46.719Z,5.70
2019-01-26T03:25:17.443Z,6.23
2019-01-26T03:27:46.423Z,4.53
2019-01-26T03:30:20.333Z,4.67
2019-01-26T03:32:49.358Z,4.23
2019-01-26T03:35:17.977Z,4.70
2019-01-26T03:37:46.699Z,7.13
2019-01-26T03:40:18.076Z,5.87
2019-01-26T03:42:46.691Z,4.80
2019-01-26T03:45:16.567Z,4.30
2019-01-26T03:47:45.184Z,7.17
2019-01-26T03:50:15.559Z,5.37
2019-01-26T03:52:44.177Z,4.60
2019-01-26T03:55:15.932Z,5.20
2019-01-26T03:57:44.547Z,4.57
2019-01-26T04:00:21.763Z,8.70
2019-01-26T04:02:50.377Z,5.50
2019-01-26T04:05:19.055Z,6.20
2019-01-26T04:07:47.670Z,5.70
2019-01-26T04:10:16.669Z,4.90
2019-01-26T04:12:45.298Z,5.23
2019-01-26T04:15:17.188Z,4.10
2019-01-26T04:17:45.859Z,4.57
2019-01-26T04:20:19.394Z,3.43
2019-01-26T04:22:48.170Z,3.80
2019-01-26T04:25:16.799Z,4.40
2019-01-26T04:27:45.608Z,4.77
2019-01-26T04:30:19.938Z,3.67
2019-01-26T04:32:48.644Z,4.97
2019-01-26T04:35:17.254Z,6.53
2019-01-26T04:37:46.014Z,9.30
2019-01-26T04:40:18.517Z,6.70
2019-01-26T04:42:47.400Z,6.20
2019-01-26T04:45:18.887Z,8.47
2019-01-26T04:47:47.546Z,6.43
2019-01-26T04:50:18.163Z,6.93
2019-01-26T04:52:46.867Z,5.23
2019-01-26T04:55:16.752Z,4.87
2019-01-26T04:57:45.362Z,4.60
2019-01-26T05:00:22.483Z,5.17
2019-01-26T05:02:51.104Z,7.43
2019-01-26T05:05:19.790Z,7.77
2019-01-26T05:07:48.485Z,7.63
2019-01-26T05:10:19.290Z,5.60
2019-01-26T05:12:48.187Z,4.90
2019-01-26T05:15:17.755Z,4.20
2019-01-26T05:17:46.427Z,4.90
2019-01-26T05:20:17.950Z,4.67
2019-01-26T05:22:46.616Z,7.03
2019-01-26T05:25:15.379Z,6.27
2019-01-26T05:27:44.026Z,5.37
2019-01-26T05:30:18.313Z,4.50
2019-01-26T05:32:46.938Z,5.77
2019-01-26T05:35:15.636Z,6.20
2019-01-26T05:37:44.253Z,5.87
2019-01-26T05:40:15.215Z,7.20
2019-01-26T05:42:43.853Z,8.13
2019-01-26T05:45:15.137Z,7.30
2019-01-26T05:47:49.058Z,5.73
2019-01-26T05:50:23.055Z,6.40
2019-01-26T05:52:51.745Z,4.60
2019-01-26T05:55:20.371Z,5.30
2019-01-26T05:57:49.260Z,5.90
2019-01-26T06:00:27.224Z,5.43
2019-01-26T06:02:55.910Z,5.07
2019-01-26T06:05:24.552Z,10.83
2019-01-26T06:07:53.254Z,11.23
2019-01-26T06:10:21.957Z,6.10
2019-01-26T06:12:50.612Z,4.83
2019-01-26T06:15:19.251Z,7.70
2019-01-26T06:17:54.787Z,10.07
2019-01-26T06:20:18.409Z,7.60
2019-01-26T06:22:47.084Z,5.33
2019-01-26T06:25:18.768Z,4.90
2019-01-26T06:27:47.388Z,5.60
2019-01-26T06:30:19.247Z,9.00
2019-01-26T06:32:47.869Z,9.87
2019-01-26T06:35:16.646Z,6.50
2019-01-26T06:37:45.330Z,8.10
2019-01-26T06:40:16.540Z,10.73
2019-01-26T06:42:45.199Z,7.50
2019-01-26T06:45:16.605Z,6.40
2019-01-26T06:47:45.347Z,6.63
2019-01-26T06:50:18.201Z,11.13
2019-01-26T06:52:46.926Z,7.53
2019-01-26T06:55:15.729Z,8.70
2019-01-26T06:57:44.641Z,7.10
2019-01-26T07:00:16.323Z,7.37
2019-01-26T07:02:44.947Z,7.13
2019-01-26T07:05:18.342Z,6.97
2019-01-26T07:07:47.012Z,5.30
2019-01-26T07:10:15.641Z,9.03
2019-01-26T07:12:44.354Z,8.23
2019-01-26T07:15:13.675Z,5.67
2019-01-26T07:17:42.403Z,6.40
2019-01-26T07:20:14.008Z,8.00
2019-01-26T07:22:42.713Z,7.60
2019-01-26T07:25:12.895Z,6.60
2019-01-26T07:27:41.632Z,8.30
2019-01-26T07:30:22.478Z,8.70
2019-01-26T07:32:55.440Z,11.53
2019-01-26T07:35:28.477Z,11.03
2019-01-26T07:37:57.088Z,9.47
2019-01-26T07:40:26.180Z,7.13
2019-01-26T07:42:54.799Z,7.80
2019-01-26T07:45:23.496Z,6.60
2019-01-26T07:47:52.110Z,6.60
2019-01-26T07:50:24.728Z,6.33
2019-01-26T07:52:53.430Z,6.03
2019-01-26T07:55:25.755Z,6.13
2019-01-26T07:57:59.405Z,5.80
2019-01-26T08:00:36.258Z,6.00
2019-01-26T08:03:04.967Z,5.20
2019-01-26T08:05:36.793Z,6.80
2019-01-26T08:08:05.500Z,6.70
2019-01-26T08:10:34.128Z,7.43
2019-01-26T08:13:02.806Z,9.40
2019-01-26T08:15:33.285Z,9.97
2019-01-26T08:18:03.472Z,8.83
2019-01-26T08:20:32.107Z,8.17
2019-01-26T08:23:00.793Z,8.13
2019-01-26T08:25:29.530Z,5.13
2019-01-26T08:27:59.681Z,6.00
2019-01-26T08:30:28.316Z,5.77
2019-01-26T08:32:57.094Z,5.90
2019-01-26T08:35:25.732Z,5.93
2019-01-26T08:37:54.426Z,6.77
2019-01-26T08:40:23.198Z,7.90
2019-01-26T08:42:51.863Z,7.07
2019-01-26T08:45:20.536Z,8.60
2019-01-26T08:47:49.620Z,9.10
2019-01-26T08:50:20.357Z,6.53
2019-01-26T08:52:49.052Z,7.70
2019-01-26T08:55:18.286Z,5.70
2019-01-26T08:57:47.148Z,5.27
2019-01-26T09:00:18.839Z,5.23
2019-01-26T09:02:56.138Z,7.97
2019-01-26T09:05:29.623Z,6.07
2019-01-26T09:08:00.385Z,7.03
2019-01-26T09:10:28.799Z,5.93
2019-01-26T09:12:57.452Z,5.23
2019-01-26T09:15:26.203Z,5.67
2019-01-26T09:17:56.501Z,7.50
2019-01-26T09:20:25.192Z,6.17
2019-01-26T09:22:53.932Z,6.73
2019-01-26T09:25:22.644Z,5.83
2019-01-26T09:27:51.497Z,7.70
2019-01-26T09:30:21.585Z,7.40
2019-01-26T09:32:50.551Z,6.30
2019-01-26T09:35:19.559Z,7.30
2019-01-26T09:37:48.346Z,5.40
2019-01-26T09:40:21.582Z,5.83
2019-01-26T09:42:50.287Z,6.13
2019-01-26T09:45:20.415Z,6.27
2019-01-26T09:47:49.110Z,5.30
2019-01-26T09:50:21.296Z,5.33
2019-01-26T09:52:50.050Z,8.00
2019-01-26T09:55:20.602Z,5.90
2019-01-26T09:57:49.288Z,5.87
2019-01-26T10:00:26.162Z,5.13
2019-01-26T10:02:54.962Z,5.20
2019-01-26T10:05:23.684Z,5.43
2019-01-26T10:07:52.347Z,5.17
2019-01-26T10:10:21.865Z,4.57
2019-01-26T10:12:50.532Z,6.87
2019-01-26T10:15:22.286Z,5.07
2019-01-26T10:17:50.902Z,4.83
2019-01-26T10:20:22.318Z,7.00
2019-01-26T10:22:51.026Z,4.23
2019-01-26T10:25:19.716Z,5.63
2019-01-26T10:27:52.477Z,5.20
2019-01-26T10:30:28.829Z,4.47
2019-01-26T10:32:57.500Z,4.50
2019-01-26T10:35:27.747Z,4.47
2019-01-26T10:37:59.485Z,5.10
2019-01-26T10:40:44.567Z,5.30
2019-01-26T10:43:14.829Z,4.33
2019-01-26T10:45:43.454Z,5.37
2019-01-26T10:48:12.128Z,5.73
2019-01-26T10:50:40.773Z,4.33
2019-01-26T10:53:13.412Z,4.23
2019-01-26T10:55:42.027Z,5.63
2019-01-26T10:58:16.210Z,4.50
2019-01-26T11:00:44.980Z,4.77
2019-01-26T11:03:19.454Z,5.00
2019-01-26T11:05:48.160Z,4.87
2019-01-26T11:08:21.021Z,4.40
2019-01-26T11:10:49.697Z,3.63
2019-01-26T11:13:19.892Z,4.07
2019-01-26T11:15:48.586Z,4.37
2019-01-26T11:18:17.343Z,4.83
2019-01-26T11:20:45.980Z,4.60
2019-01-26T11:23:20.247Z,4.27
2019-01-26T11:25:48.867Z,4.23
2019-01-26T11:28:20.621Z,3.30
2019-01-26T11:30:49.251Z,4.60
2019-01-26T11:33:17.956Z,3.20
2019-01-26T11:35:46.594Z,3.90
2019-01-26T11:38:15.304Z,5.80
2019-01-26T11:40:47.070Z,5.83
2019-01-26T11:43:15.748Z,3.90
2019-01-26T11:45:47.418Z,3.10
2019-01-26T11:48:17.691Z,2.77
2019-01-26T11:51:02.846Z,3.07
2019-01-26T11:53:31.543Z,3.40
2019-01-26T11:56:01.756Z,3.80
2019-01-26T11:58:30.460Z,3.67
2019-01-26T12:01:07.832Z,2.73
2019-01-26T12:03:38.042Z,4.00
2019-01-26T12:06:11.311Z,2.80
2019-01-26T12:08:41.526Z,4.90
2019-01-26T12:11:11.693Z,5.00
2019-01-26T12:13:41.212Z,5.90
2019-01-26T12:16:12.993Z,4.10
2019-01-26T12:18:41.686Z,4.33
2019-01-26T12:21:11.956Z,5.77
2019-01-26T12:23:43.650Z,4.63
2019-01-26T12:26:12.339Z,3.73
2019-01-26T12:28:41.057Z,4.20
2019-01-26T12:31:11.196Z,3.00
2019-01-26T12:33:39.966Z,4.37
2019-01-26T12:36:08.608Z,3.47
2019-01-26T12:38:37.321Z,2.90
2019-01-26T12:41:05.946Z,2.73
2019-01-26T12:43:34.659Z,4.00
2019-01-26T12:46:03.472Z,3.10
2019-01-26T12:48:32.198Z,4.17
2019-01-26T12:51:00.810Z,3.17
2019-01-26T12:53:30.755Z,2.80
2019-01-26T12:55:59.384Z,3.00
2019-01-26T12:58:28.048Z,3.43
2019-01-26T13:00:56.682Z,3.97
2019-01-26T13:03:25.404Z,3.10
2019-01-26T13:05:54.148Z,3.20
2019-01-26T13:08:22.858Z,3.47
2019-01-26T13:10:54.577Z,3.53
2019-01-26T13:13:23.228Z,4.10
2019-01-26T13:15:51.861Z,3.50
2019-01-26T13:18:20.690Z,5.20
2019-01-26T13:20:49.320Z,18.03
2019-01-26T13:23:23.101Z,9.60
2019-01-26T13:25:51.510Z,10.73
2019-01-26T13:28:21.639Z,17.20
2019-01-26T13:30:51.902Z,9.07
2019-01-26T13:33:22.076Z,9.10
2019-01-26T13:35:50.770Z,9.70
2019-01-26T13:38:19.413Z,9.10
2019-01-26T13:40:48.103Z,7.93
2019-01-26T13:43:16.734Z,7.60
2019-01-26T13:45:45.427Z,7.93
2019-01-26T13:48:14.059Z,8.60
2019-01-26T13:50:42.757Z,9.17
2019-01-26T13:53:11.448Z,8.90
2019-01-26T13:55:40.098Z,10.80
2019-01-26T13:58:08.793Z,10.67
2019-01-26T14:00:38.380Z,8.03
2019-01-26T14:03:07.181Z,4.23
2019-01-26T14:05:38.844Z,5.07
2019-01-26T14:08:12.041Z,7.50
2019-01-26T14:10:52.280Z,4.70
2019-01-26T14:13:21.041Z,4.40
2019-01-26T14:15:49.785Z,4.13
2019-01-26T14:18:18.545Z,4.13
2019-01-26T14:20:49.954Z,7.80
2019-01-26T14:23:21.271Z,4.90
2019-01-26T14:25:51.602Z,2.80
2019-01-26T14:28:20.640Z,3.27
2019-01-26T14:30:51.975Z,9.93
2019-01-26T14:33:20.680Z,11.30
2019-01-26T14:35:52.169Z,10.70
2019-01-26T14:38:24.075Z,10.67
2019-01-26T14:40:52.712Z,13.37
2019-01-26T14:43:21.401Z,13.10
2019-01-26T14:45:50.115Z,8.90
2019-01-26T14:48:21.131Z,10.00
2019-01-26T14:50:49.785Z,38.37
2019-01-26T14:53:18.458Z,12.43
2019-01-26T14:55:47.127Z,18.33
2019-01-26T14:58:15.847Z,14.20
2019-01-26T15:00:44.567Z,12.90
2019-01-26T15:03:14.827Z,10.57
2019-01-26T15:05:43.481Z,7.10
2019-01-26T15:08:15.310Z,6.50
2019-01-26T15:10:43.933Z,4.63
2019-01-26T15:13:12.641Z,3.90
2019-01-26T15:15:41.391Z,2.53
2019-01-26T15:18:11.809Z,5.00
2019-01-26T15:20:42.084Z,10.13
2019-01-26T15:23:14.322Z,9.97
2019-01-26T15:25:42.967Z,9.23
2019-01-26T15:28:19.184Z,9.23
2019-01-26T15:30:47.851Z,4.73
2019-01-26T15:33:19.599Z,3.37
2019-01-26T15:35:48.300Z,2.30
2019-01-26T15:38:17.037Z,3.13
2019-01-26T15:40:47.407Z,1.77
2019-01-26T15:43:16.044Z,2.03
2019-01-26T15:45:45.078Z,1.80
2019-01-26T15:48:13.761Z,2.57
2019-01-26T15:50:42.387Z,1.63
2019-01-26T15:53:13.506Z,2.23
2019-01-26T15:55:45.284Z,2.60
2019-01-26T15:58:13.998Z,2.93
2019-01-26T16:00:46.217Z,1.97
2019-01-26T16:03:14.847Z,1.73
2019-01-26T16:05:46.152Z,3.00
2019-01-26T16:08:14.940Z,1.90
2019-01-26T16:10:43.667Z,2.27
2019-01-26T16:13:12.384Z,3.83
2019-01-26T16:15:42.583Z,2.53
2019-01-26T16:18:13.233Z,2.20
2019-01-26T16:20:41.785Z,1.60
2019-01-26T16:23:12.510Z,1.20
2019-01-26T16:25:40.957Z,1.90
2019-01-26T16:28:09.585Z,1.50
2019-01-26T16:30:38.411Z,1.03
2019-01-26T16:33:07.100Z,1.93
2019-01-26T16:35:35.724Z,2.17
2019-01-26T16:38:07.546Z,1.17
2019-01-26T16:40:36.974Z,1.90
2019-01-26T16:43:07.134Z,2.03
2019-01-26T16:45:38.116Z,1.80
2019-01-26T16:48:08.799Z,1.80
2019-01-26T16:50:38.912Z,9.70
2019-01-26T16:53:07.620Z,3.93
2019-01-26T16:55:36.273Z,1.30
2019-01-26T16:58:05.534Z,1.27
2019-01-26T17:00:40.280Z,1.37
2019-01-26T17:03:10.642Z,1.00
2019-01-26T17:05:40.245Z,0.83
2019-01-26T17:08:17.404Z,0.93
2019-01-26T17:10:49.606Z,1.40
2019-01-26T17:13:22.782Z,1.00
2019-01-26T17:15:51.427Z,1.90
2019-01-26T17:18:20.305Z,1.30
2019-01-26T17:20:52.911Z,1.23
2019-01-26T17:23:21.562Z,1.00
2019-01-26T17:25:50.288Z,1.50
2019-01-26T17:28:22.033Z,0.70
2019-01-26T17:30:50.659Z,0.50
2019-01-26T17:33:19.361Z,0.50
2019-01-26T17:35:48.184Z,0.60
2019-01-26T17:38:18.290Z,0.50
2019-01-26T17:40:54.199Z,0.57
2019-01-26T17:46:47.742Z,0.60
2019-01-26T17:49:16.555Z,0.33
2019-01-26T17:51:45.351Z,10.03
2019-01-26T17:54:15.801Z,14.40
2019-01-26T17:56:44.508Z,13.60
2019-01-26T17:59:16.065Z,13.80
2019-01-26T18:01:44.761Z,12.20
2019-01-26T18:04:21.240Z,12.17
2019-01-26T18:06:55.496Z,11.57
2019-01-26T18:09:24.410Z,5.00
2019-01-26T18:11:53.041Z,0.80
2019-01-26T18:14:21.910Z,4.50
2019-01-26T18:16:50.531Z,12.37
2019-01-26T18:19:19.368Z,11.00
2019-01-26T18:21:47.992Z,10.83
2019-01-26T18:24:18.257Z,10.13
2019-01-26T18:26:46.928Z,10.30
2019-01-26T18:29:15.724Z,11.23
2019-01-26T18:31:46.946Z,11.80
2019-01-26T18:34:17.619Z,10.50
2019-01-26T18:36:48.074Z,12.80
2019-01-26T18:39:16.897Z,11.60
2019-01-26T18:41:47.913Z,10.60
2019-01-26T18:44:16.807Z,9.77
2019-01-26T18:46:48.570Z,10.77
2019-01-26T18:49:17.384Z,10.30
2019-01-26T18:51:46.221Z,12.10
2019-01-26T18:54:16.722Z,13.00
2019-01-26T18:56:45.373Z,12.47
2019-01-26T18:59:14.175Z,14.80
2019-01-26T19:01:42.949Z,17.93
2019-01-26T19:04:15.099Z,16.03
2019-01-26T19:06:43.820Z,15.43
2019-01-26T19:09:12.630Z,18.83
2019-01-26T19:11:41.335Z,20.43
2019-01-26T19:14:10.545Z,24.37
2019-01-26T19:16:41.264Z,43.37
2019-01-26T19:19:10.023Z,22.90
2019-01-26T19:21:40.273Z,22.77
2019-01-26T19:24:13.096Z,27.67
2019-01-26T19:26:41.884Z,27.87
2019-01-26T19:29:10.807Z,27.60
2019-01-26T19:31:39.512Z,25.10
2019-01-26T19:34:12.624Z,23.20
2019-01-26T19:36:41.365Z,13.80
2019-01-26T19:39:10.014Z,1.67
2019-01-26T19:41:38.701Z,1.30
2019-01-26T19:44:08.920Z,0.50
2019-01-26T19:46:37.584Z,0.20
2019-01-26T19:49:09.150Z,10.77
2019-01-26T19:51:40.232Z,11.30
2019-01-26T19:54:11.139Z,12.40
2019-01-26T19:56:40.060Z,13.50
2019-01-26T19:59:11.494Z,11.97
2019-01-26T20:01:40.258Z,13.97
2019-01-26T20:04:09.220Z,13.03
2019-01-26T20:06:38.024Z,8.80
2019-01-26T20:09:09.954Z,1.30
2019-01-26T20:11:40.210Z,0.20
2019-01-26T20:14:10.107Z,0.30
2019-01-26T20:16:38.947Z,0.30
2019-01-26T20:19:07.619Z,0.30
2019-01-26T20:21:36.369Z,0.40
2019-01-26T20:24:05.555Z,0.20
2019-01-26T20:26:34.251Z,0.20
2019-01-26T20:29:03.232Z,5.73
2019-01-26T20:31:33.619Z,9.20
2019-01-26T20:34:02.281Z,8.83
2019-01-26T20:36:32.921Z,8.33
2019-01-26T20:39:01.745Z,1.37
2019-01-26T20:41:31.724Z,0.30
2019-01-26T20:44:00.337Z,0.20
2019-01-26T20:46:33.172Z,0.30
2019-01-26T20:49:01.856Z,0.47
2019-01-26T20:51:30.575Z,7.77
2019-01-26T20:53:59.267Z,17.60
2019-01-26T20:56:29.371Z,9.60
2019-01-26T20:58:58.117Z,9.03
2019-01-26T21:01:26.944Z,10.27
2019-01-26T21:03:55.696Z,8.83
2019-01-26T21:06:24.352Z,8.97
2019-01-26T21:08:54.941Z,9.23
2019-01-26T21:11:23.555Z,10.30
2019-01-26T21:13:52.285Z,11.63
2019-01-26T21:16:21.235Z,12.00
2019-01-26T21:18:51.037Z,13.00
2019-01-26T21:21:19.756Z,12.13
2019-01-26T21:23:50.139Z,12.07
2019-01-26T21:26:18.895Z,8.83
2019-01-26T21:28:51.889Z,7.87
2019-01-26T21:31:20.632Z,7.03
2019-01-26T21:33:49.363Z,6.37
2019-01-26T21:36:18.068Z,6.90
2019-01-26T21:38:50.392Z,6.00
2019-01-26T21:41:19.047Z,5.17
2019-01-26T21:43:49.260Z,7.20
2019-01-26T21:46:18.147Z,8.17
2019-01-26T21:48:46.905Z,12.30
2019-01-26T21:51:15.644Z,19.27
2019-01-26T21:53:44.444Z,14.60
2019-01-26T21:56:16.179Z,14.87
2019-01-26T21:58:47.779Z,7.53
2019-01-26T22:01:16.474Z,4.40
2019-01-26T22:03:47.998Z,10.13
2019-01-26T22:06:16.651Z,8.90
2019-01-26T22:08:45.228Z,11.20
2019-01-26T22:11:15.195Z,10.47
2019-01-26T22:13:43.784Z,10.53
2019-01-26T22:16:12.372Z,8.97
2019-01-26T22:18:41.089Z,9.23
2019-01-26T22:21:09.707Z,6.70
2019-01-26T22:23:38.552Z,7.77
2019-01-26T22:26:08.783Z,8.50
2019-01-26T22:28:37.583Z,8.80
2019-01-26T22:31:06.270Z,9.13
2019-01-26T22:33:34.899Z,9.17
2019-01-26T22:36:03.619Z,11.17
2019-01-26T22:38:32.239Z,10.80
2019-01-26T22:41:02.342Z,9.00
2019-01-26T22:43:31.007Z,9.97
2019-01-26T22:45:59.687Z,10.60
2019-01-26T22:48:28.319Z,11.13
2019-01-26T22:50:57.015Z,10.90
2019-01-26T22:53:28.147Z,10.17
2019-01-26T22:55:56.835Z,11.30
2019-01-26T22:58:25.527Z,13.13
2019-01-26T23:01:00.207Z,12.20
2019-01-26T23:03:31.926Z,10.00
2019-01-26T23:06:03.588Z,10.83
2019-01-26T23:08:35.369Z,12.00
2019-01-26T23:11:07.159Z,12.10
2019-01-26T23:13:40.419Z,13.90
2019-01-26T23:16:23.371Z,13.67
2019-01-26T23:19:08.614Z,14.10
2019-01-26T23:21:52.302Z,14.17
2019-01-26T23:24:41.394Z,15.40
2019-01-26T23:27:13.932Z,19.17
2019-01-26T23:30:02.406Z,13.47
2019-01-26T23:32:31.122Z,11.30
2019-01-26T23:34:59.806Z,12.40
2019-01-26T23:37:28.627Z,14.23
2019-01-26T23:39:58.808Z,17.57
2019-01-26T23:42:27.499Z,15.83
2019-01-26T23:44:56.128Z,13.73
2019-01-26T23:47:24.801Z,14.93
2019-01-26T23:49:54.889Z,15.00
2019-01-26T23:52:23.617Z,18.00
2019-01-26T23:54:52.301Z,16.13
2019-01-26T23:57:21.031Z,16.00
2019-01-26T23:59:50.144Z,17.60
